• Join FlightAware (Why Join?)
  • Login
  • US Flag 
Trick or treat! (Boo!!) 
12:01AM EDT


 

Airport Tracker/Info


-or-


 

Live Flight TrackerFlight Track Log ✈ UPS9515 ✈ 30-Apr-2013 ✈ KLRD - KSAT

Flight Track Log - Related Links

Times and Time Zones

All times are in EDT time to prevent confusion due to time zone crossing. See the UPS9515 flight status page for this flight to view local times or setup timezone preferences in your user account.

Time Position Orientation Groundspeed Altitude Reporting Facility
EDT Latitude Longitude Course Direction KTS MPH feet Rate Location/Type
09:09AM 27.5250 -99.4603 75° East 139 160 2,300  Level Houston Center
09:10AM 27.4750 -99.4328 154° Southeast 200 230 4,600 2,460 Climbing Houston Center
09:11AM 27.4644 -99.3556 99° East 264 304 7,400 2,880 Climbing Houston Center
09:12AM 27.5122 -99.2836 53° Northeast 278 320 10,600 2,400 Climbing Houston Center
09:13AM 27.6287 -98.6766 75° East  Level FlightAware Approximate
09:13AM 27.5622 -99.1958 57° Northeast 306 352 12,400  Level Houston Center
09:14AM 27.6612 -98.5396 75° East  Level FlightAware Approximate
09:14AM 27.6150 -99.0944 60° Northeast 352 405 15,000  Level Houston Center
09:15AM 27.6697 -98.9892 60° Northeast 379 436 17,500 2,220 Climbing Houston Center
09:16AM 27.7261 -98.8800 60° Northeast 395 455 19,700 2,040 Climbing Houston Center
09:17AM 27.7981 -98.7433 59° Northeast 417 480 21,800 1,860 Climbing Houston Center
09:18AM 27.8594 -98.6236 60° Northeast 434 499 23,600 300 Climbing Houston Center
09:24AM 28.3040 -98.0370 60° Northeast 410 472 24,000 60 Climbing FlightAware
09:24AM 28.3660 -98.0760 331° Northwest 404 465 24,000  Level FlightAware
09:25AM 28.4290 -98.1210 328° Northwest 402 463 24,000  Level FlightAware
09:26AM 28.4830 -98.1590 328° Northwest 402 463 24,000 -3,540 Level FlightAware
09:26AM 28.5558 -98.2075 330° Northwest 386 444 19,500 -4,500 Descending FlightAware ADS-B
09:27AM 28.6020 -98.2395 329° Northwest 381 438 19,000 -1,500 Descending FlightAware ADS-B
09:27AM 28.6504 -98.2730 329° Northwest 379 436 18,000 -2,880 Descending FlightAware ADS-B
09:28AM 28.7507 -98.3425 329° Northwest 394 453 14,400 -1,740 Descending FlightAware ADS-B
09:32AM 29.0602 -98.4954 337° Northwest 290 334 10,100 -1,260 Descending FlightAware ADS-B
09:32AM 29.1084 -98.4933 North 281 323 9,300 -1,020 Descending FlightAware ADS-B
09:35AM 29.2900 -98.4830 North 280 322 7,100 -900 Descending FlightAware
09:35AM 29.3070 -98.4810 North 280 322 7,100  Level FlightAware
09:36AM 29.3470 -98.4790 North 273 314 7,100  Level FlightAware
09:36AM 29.3600 -98.4780 North 264 304 7,100  Level FlightAware
09:36AM 29.3916 -98.4838 351° North 241 277 7,100  Level FlightAware ADS-B
09:36AM 29.3964 -98.4876 325° Northwest 239 275 7,100  Level FlightAware ADS-B
09:36AM 29.4054 -98.4966 319° Northwest 239 275 7,100  Level FlightAware ADS-B
09:37AM 29.4212 -98.5133 317° Northwest 238 274 7,100  Level FlightAware ADS-B
09:37AM 29.4412 -98.5342 318° Northwest 236 272 7,100  Level FlightAware ADS-B
09:37AM 29.4584 -98.5521 318° Northwest 236 272 7,100  Level FlightAware ADS-B
09:38AM 29.4762 -98.5706 318° Northwest 235 270 7,100  Level FlightAware ADS-B
09:38AM 29.4888 -98.5838 318° Northwest 236 272 7,100  Level FlightAware ADS-B
09:38AM 29.5011 -98.5965 318° Northwest 236 272 7,100 -420 Level FlightAware ADS-B
09:39AM 29.5135 -98.6092 318° Northwest 234 269 6,900 -600 Descending FlightAware ADS-B
09:39AM 29.5277 -98.6240 318° Northwest 222 255 6,800 -780 Descending FlightAware ADS-B
09:39AM 29.5449 -98.6418 318° Northwest 219 252 6,400 -1,020 Descending FlightAware ADS-B
09:40AM 29.5596 -98.6568 318° Northwest 215 247 6,100 -540 Descending FlightAware ADS-B
09:40AM 29.5708 -98.6679 319° Northwest 203 234 6,100  Level FlightAware ADS-B
09:40AM 29.5808 -98.6778 319° Northwest 191 220 6,100  Level FlightAware ADS-B
09:40AM 29.5890 -98.6859 319° Northwest 186 214 6,100  Level FlightAware ADS-B
09:41AM 29.5997 -98.6964 320° Northwest 185 213 6,100  Level FlightAware ADS-B
09:41AM 29.6119 -98.7083 320° Northwest 187 215 6,100  Level FlightAware ADS-B
09:41AM 29.6256 -98.7220 319° Northwest 187 215 6,100  Level FlightAware ADS-B
09:42AM 29.6367 -98.7331 319° Northwest 187 215 6,100  Level FlightAware ADS-B
09:42AM 29.6496 -98.7449 322° Northwest 189 217 6,100  Level FlightAware ADS-B
09:42AM 29.6529 -98.7465 337° Northwest 187 215 6,100 -1,080 Level FlightAware ADS-B
09:43AM 29.7006 -98.7018 39° Northeast 185 213 4,700 -1,080 Descending FlightAware ADS-B
09:43AM 29.6995 -98.6972 105° East 182 209 4,700 -900 Level FlightAware ADS-B
09:43AM 29.6961 -98.6890 116° Southeast 179 206 4,500 -1,200 Descending FlightAware ADS-B
09:44AM 29.6856 -98.6712 124° Southeast 181 208 4,100 -1,080 Descending FlightAware ADS-B
09:44AM 29.6754 -98.6565 129° Southeast 183 211 3,800 -840 Descending FlightAware ADS-B
09:45AM 29.6582 -98.6345 132° Southeast 183 211 3,400 -780 Descending FlightAware ADS-B
09:45AM 29.6477 -98.6210 132° Southeast 183 211 3,200 -420 Descending FlightAware ADS-B
09:46AM 29.6225 -98.5878 132° Southeast 181 208 3,000 -540 Descending Houston Center
09:47AM 29.5917 -98.5475 131° Southeast 173 199 2,300 -720 Descending Houston Center
09:48AM 29.5686 -98.5178 132° Southeast 126 145 1,600 -720 Descending Houston Center
09:49AM 29.5461 -98.4878 131° Southeast 117 135 900 -720 Descending Houston Center